Colcord, West Virginia
Current Conditions -  °F | °C
As of 4:25 AM on Tuesday 21 Oct 2014 (Local Time) from KBKW Reporting Station
Light Rain Light Rain  
Wind Chill: 46°   Ceiling: 1700
Heat Index: 48°   Visibility: 7mi
Dew Point: 45°   Wind: 5mph
Humidity: 89%   Direction: 280°W
Pressure: 29.94"   Gusts: NA
Location:  37.95°N, 81.44°W
Report Text: KBKW 210825Z AUTO 28004KT 7SM -RA BKN017 BKN035 OVC050 09/07 A2994 RMK AO2 RAB03 P0000 T00890072 TSNO
Loading
Personal Weather Stations






























Interactive Weather Map New forecast layout! Learn more

10-Day Weather Forecast

Advertisements
Track Severe Weather on mobile